sensor_id;sensor_type;location;lat;lon;timestamp;temperature;humidity
26262;DHT22;13988;52.446;13.280;2024-03-29T00:00:42;8.70;99.90
26262;DHT22;13988;52.446;13.280;2024-03-29T00:03:10;8.70;99.90
26262;DHT22;13988;52.446;13.280;2024-03-29T00:05:36;8.90;99.90
26262;DHT22;13988;52.446;13.280;2024-03-29T00:08:02;8.90;99.90
26262;DHT22;13988;52.446;13.280;2024-03-29T00:10:28;9.00;99.90
26262;DHT22;13988;52.446;13.280;2024-03-29T00:12:54;9.00;99.90
26262;DHT22;13988;52.446;13.280;2024-03-29T00:15:20;9.10;99.90
26262;DHT22;13988;52.446;13.280;2024-03-29T00:17:45;9.10;99.90
26262;DHT22;13988;52.446;13.280;2024-03-29T00:20:11;9.20;99.90
26262;DHT22;13988;52.446;13.280;2024-03-29T00:22:37;9.20;99.90
26262;DHT22;13988;52.446;13.280;2024-03-29T00:25:03;9.20;99.90
26262;DHT22;13988;52.446;13.280;2024-03-29T00:27:29;9.10;99.90
26262;DHT22;13988;52.446;13.280;2024-03-29T00:29:55;9.00;99.90
26262;DHT22;13988;52.446;13.280;2024-03-29T00:32:21;8.80;99.90
26262;DHT22;13988;52.446;13.280;2024-03-29T00:34:49;8.60;99.90
26262;DHT22;13988;52.446;13.280;2024-03-29T00:37:15;8.50;99.90
26262;DHT22;13988;52.446;13.280;2024-03-29T00:39:41;8.40;99.90
26262;DHT22;13988;52.446;13.280;2024-03-29T00:42:07;8.20;99.90
26262;DHT22;13988;52.446;13.280;2024-03-29T00:44:38;8.20;99.90
26262;DHT22;13988;52.446;13.280;2024-03-29T00:47:04;8.10;99.90
26262;DHT22;13988;52.446;13.280;2024-03-29T00:49:30;8.00;99.90
26262;DHT22;13988;52.446;13.280;2024-03-29T00:51:56;7.90;99.90
26262;DHT22;13988;52.446;13.280;2024-03-29T00:54:22;7.80;99.90
26262;DHT22;13988;52.446;13.280;2024-03-29T00:56:49;7.90;99.90
26262;DHT22;13988;52.446;13.280;2024-03-29T00:59:15;7.70;99.90
26262;DHT22;13988;52.446;13.280;2024-03-29T01:01:41;7.70;99.90
26262;DHT22;13988;52.446;13.280;2024-03-29T01:04:07;7.70;99.90
26262;DHT22;13988;52.446;13.280;2024-03-29T01:06:32;7.70;99.90
26262;DHT22;13988;52.446;13.280;2024-03-29T01:08:59;7.70;99.90
26262;DHT22;13988;52.446;13.280;2024-03-29T01:11:25;7.60;99.90
26262;DHT22;13988;52.446;13.280;2024-03-29T01:13:51;7.60;99.90
26262;DHT22;13988;52.446;13.280;2024-03-29T01:16:16;7.50;99.90
26262;DHT22;13988;52.446;13.280;2024-03-29T01:18:42;7.50;99.90
26262;DHT22;13988;52.446;13.280;2024-03-29T01:21:09;7.50;99.90
26262;DHT22;13988;52.446;13.280;2024-03-29T01:23:35;7.50;99.90
26262;DHT22;13988;52.446;13.280;2024-03-29T01:26:01;7.40;99.90
26262;DHT22;13988;52.446;13.280;2024-03-29T01:28:26;7.50;99.90
26262;DHT22;13988;52.446;13.280;2024-03-29T01:30:55;7.40;99.90
26262;DHT22;13988;52.446;13.280;2024-03-29T01:33:21;7.40;99.90
26262;DHT22;13988;52.446;13.280;2024-03-29T01:35:47;7.40;99.90
26262;DHT22;13988;52.446;13.280;2024-03-29T01:38:14;7.30;99.90
26262;DHT22;13988;52.446;13.280;2024-03-29T01:40:40;7.30;99.90
26262;DHT22;13988;52.446;13.280;2024-03-29T01:43:05;7.20;99.90
26262;DHT22;13988;52.446;13.280;2024-03-29T01:45:32;7.20;99.90
26262;DHT22;13988;52.446;13.280;2024-03-29T01:47:58;7.20;99.90
26262;DHT22;13988;52.446;13.280;2024-03-29T01:50:24;7.20;99.90
26262;DHT22;13988;52.446;13.280;2024-03-29T01:52:50;7.10;99.90
26262;DHT22;13988;52.446;13.280;2024-03-29T01:55:16;7.10;99.90
26262;DHT22;13988;52.446;13.280;2024-03-29T01:57:42;7.10;99.90
26262;DHT22;13988;52.446;13.280;2024-03-29T02:00:08;7.00;99.90
26262;DHT22;13988;52.446;13.280;2024-03-29T02:02:36;7.00;99.90
26262;DHT22;13988;52.446;13.280;2024-03-29T02:05:02;7.00;99.90
26262;DHT22;13988;52.446;13.280;2024-03-29T02:07:29;7.00;99.90
26262;DHT22;13988;52.446;13.280;2024-03-29T02:09:54;7.10;99.90
26262;DHT22;13988;52.446;13.280;2024-03-29T02:12:20;7.10;99.90
26262;DHT22;13988;52.446;13.280;2024-03-29T02:14:45;7.10;99.90
26262;DHT22;13988;52.446;13.280;2024-03-29T02:17:11;7.10;99.90
26262;DHT22;13988;52.446;13.280;2024-03-29T02:19:37;7.00;99.90
26262;DHT22;13988;52.446;13.280;2024-03-29T02:22:03;7.00;99.90
26262;DHT22;13988;52.446;13.280;2024-03-29T02:24:31;7.00;99.90
26262;DHT22;13988;52.446;13.280;2024-03-29T02:26:57;6.80;99.90
26262;DHT22;13988;52.446;13.280;2024-03-29T02:29:24;6.80;99.90
26262;DHT22;13988;52.446;13.280;2024-03-29T02:31:49;6.80;99.90
26262;DHT22;13988;52.446;13.280;2024-03-29T02:34:15;6.70;99.90
26262;DHT22;13988;52.446;13.280;2024-03-29T02:36:42;6.70;99.90
26262;DHT22;13988;52.446;13.280;2024-03-29T02:39:09;6.70;99.90
26262;DHT22;13988;52.446;13.280;2024-03-29T02:41:35;6.70;99.90
26262;DHT22;13988;52.446;13.280;2024-03-29T02:44:00;6.70;99.90
26262;DHT22;13988;52.446;13.280;2024-03-29T02:46:26;6.60;99.90
26262;DHT22;13988;52.446;13.280;2024-03-29T02:48:52;6.60;99.90
26262;DHT22;13988;52.446;13.280;2024-03-29T02:51:17;6.60;99.90
26262;DHT22;13988;52.446;13.280;2024-03-29T02:53:43;6.60;99.90
26262;DHT22;13988;52.446;13.280;2024-03-29T02:56:09;6.50;99.90
26262;DHT22;13988;52.446;13.280;2024-03-29T02:58:35;6.50;99.90
26262;DHT22;13988;52.446;13.280;2024-03-29T03:01:10;6.50;99.90
26262;DHT22;13988;52.446;13.280;2024-03-29T03:03:36;6.50;99.90
26262;DHT22;13988;52.446;13.280;2024-03-29T03:06:02;6.40;99.90
26262;DHT22;13988;52.446;13.280;2024-03-29T03:08:29;6.40;99.90
26262;DHT22;13988;52.446;13.280;2024-03-29T03:11:13;6.30;99.90
26262;DHT22;13988;52.446;13.280;2024-03-29T03:13:38;6.30;99.90
26262;DHT22;13988;52.446;13.280;2024-03-29T03:16:04;6.30;99.90
26262;DHT22;13988;52.446;13.280;2024-03-29T03:18:30;6.20;99.90
26262;DHT22;13988;52.446;13.280;2024-03-29T03:20:57;6.20;99.90
26262;DHT22;13988;52.446;13.280;2024-03-29T03:23:23;6.20;99.90
26262;DHT22;13988;52.446;13.280;2024-03-29T03:25:56;6.10;99.90
26262;DHT22;13988;52.446;13.280;2024-03-29T03:28:23;6.10;99.90
26262;DHT22;13988;52.446;13.280;2024-03-29T03:30:49;6.10;99.90
26262;DHT22;13988;52.446;13.280;2024-03-29T03:33:15;6.10;99.90
26262;DHT22;13988;52.446;13.280;2024-03-29T03:35:42;6.10;99.90
26262;DHT22;13988;52.446;13.280;2024-03-29T03:38:08;6.10;99.90
26262;DHT22;13988;52.446;13.280;2024-03-29T03:40:37;6.00;99.90
26262;DHT22;13988;52.446;13.280;2024-03-29T03:43:04;6.00;99.90
26262;DHT22;13988;52.446;13.280;2024-03-29T03:45:38;6.00;99.90
26262;DHT22;13988;52.446;13.280;2024-03-29T03:48:06;6.00;99.90
26262;DHT22;13988;52.446;13.280;2024-03-29T03:50:33;6.00;99.90
26262;DHT22;13988;52.446;13.280;2024-03-29T03:52:58;6.00;99.90
26262;DHT22;13988;52.446;13.280;2024-03-29T03:55:24;6.00;99.90
26262;DHT22;13988;52.446;13.280;2024-03-29T03:57:50;6.00;99.90
26262;DHT22;13988;52.446;13.280;2024-03-29T04:00:17;6.00;99.90
26262;DHT22;13988;52.446;13.280;2024-03-29T04:02:47;5.90;99.90
26262;DHT22;13988;52.446;13.280;2024-03-29T04:05:13;5.90;99.90
26262;DHT22;13988;52.446;13.280;2024-03-29T04:07:39;5.90;99.90
26262;DHT22;13988;52.446;13.280;2024-03-29T04:10:05;5.90;99.90
26262;DHT22;13988;52.446;13.280;2024-03-29T04:12:31;5.90;99.90
26262;DHT22;13988;52.446;13.280;2024-03-29T04:14:56;5.90;99.90
26262;DHT22;13988;52.446;13.280;2024-03-29T04:17:23;5.90;99.90
26262;DHT22;13988;52.446;13.280;2024-03-29T04:19:49;5.80;99.90
26262;DHT22;13988;52.446;13.280;2024-03-29T04:22:14;5.80;99.90
26262;DHT22;13988;52.446;13.280;2024-03-29T04:24:40;5.80;99.90
26262;DHT22;13988;52.446;13.280;2024-03-29T04:27:05;5.80;99.90
26262;DHT22;13988;52.446;13.280;2024-03-29T04:29:31;5.80;99.90
26262;DHT22;13988;52.446;13.280;2024-03-29T04:31:57;5.80;99.90
26262;DHT22;13988;52.446;13.280;2024-03-29T04:34:22;5.80;99.90
26262;DHT22;13988;52.446;13.280;2024-03-29T04:36:48;5.70;99.90
26262;DHT22;13988;52.446;13.280;2024-03-29T04:39:13;5.80;99.90
26262;DHT22;13988;52.446;13.280;2024-03-29T04:41:39;5.70;99.90
26262;DHT22;13988;52.446;13.280;2024-03-29T04:44:05;5.70;99.90
26262;DHT22;13988;52.446;13.280;2024-03-29T04:46:31;5.70;99.90
26262;DHT22;13988;52.446;13.280;2024-03-29T04:48:57;5.70;99.90
26262;DHT22;13988;52.446;13.280;2024-03-29T04:51:23;5.70;99.90
26262;DHT22;13988;52.446;13.280;2024-03-29T04:53:49;5.80;99.90
26262;DHT22;13988;52.446;13.280;2024-03-29T04:56:15;5.80;99.90
26262;DHT22;13988;52.446;13.280;2024-03-29T04:58:41;5.80;99.90
26262;DHT22;13988;52.446;13.280;2024-03-29T05:01:07;5.70;99.90
26262;DHT22;13988;52.446;13.280;2024-03-29T05:03:33;5.80;99.90
26262;DHT22;13988;52.446;13.280;2024-03-29T05:05:58;5.70;99.90
26262;DHT22;13988;52.446;13.280;2024-03-29T05:08:24;5.70;99.90
26262;DHT22;13988;52.446;13.280;2024-03-29T05:10:50;5.70;99.90
26262;DHT22;13988;52.446;13.280;2024-03-29T05:13:17;5.80;99.90
26262;DHT22;13988;52.446;13.280;2024-03-29T05:15:45;5.80;99.90
26262;DHT22;13988;52.446;13.280;2024-03-29T05:18:11;5.90;99.90
26262;DHT22;13988;52.446;13.280;2024-03-29T05:20:36;5.90;99.90
26262;DHT22;13988;52.446;13.280;2024-03-29T05:23:02;5.90;99.90
26262;DHT22;13988;52.446;13.280;2024-03-29T05:25:28;5.90;99.90
26262;DHT22;13988;52.446;13.280;2024-03-29T05:27:54;5.90;99.90
26262;DHT22;13988;52.446;13.280;2024-03-29T05:30:19;6.00;99.90
26262;DHT22;13988;52.446;13.280;2024-03-29T05:32:45;6.00;99.90
26262;DHT22;13988;52.446;13.280;2024-03-29T05:35:11;6.00;99.90
26262;DHT22;13988;52.446;13.280;2024-03-29T05:37:37;6.00;99.90
26262;DHT22;13988;52.446;13.280;2024-03-29T05:40:03;6.00;99.90
26262;DHT22;13988;52.446;13.280;2024-03-29T05:42:33;6.00;99.90
26262;DHT22;13988;52.446;13.280;2024-03-29T05:45:01;6.10;99.90
26262;DHT22;13988;52.446;13.280;2024-03-29T05:47:27;6.10;99.90
26262;DHT22;13988;52.446;13.280;2024-03-29T05:49:53;6.10;99.90
26262;DHT22;13988;52.446;13.280;2024-03-29T05:52:19;6.20;99.90
26262;DHT22;13988;52.446;13.280;2024-03-29T05:54:46;6.10;99.90
26262;DHT22;13988;52.446;13.280;2024-03-29T05:57:12;6.20;99.90
26262;DHT22;13988;52.446;13.280;2024-03-29T05:59:37;6.20;99.90
26262;DHT22;13988;52.446;13.280;2024-03-29T06:02:04;6.30;99.90
26262;DHT22;13988;52.446;13.280;2024-03-29T06:04:29;6.40;99.90
26262;DHT22;13988;52.446;13.280;2024-03-29T06:07:01;6.40;99.90
26262;DHT22;13988;52.446;13.280;2024-03-29T06:09:27;6.50;99.90
26262;DHT22;13988;52.446;13.280;2024-03-29T06:11:54;6.50;99.90
26262;DHT22;13988;52.446;13.280;2024-03-29T06:14:21;6.60;99.90
26262;DHT22;13988;52.446;13.280;2024-03-29T06:17:05;6.70;99.90
26262;DHT22;13988;52.446;13.280;2024-03-29T06:19:53;6.70;99.90
26262;DHT22;13988;52.446;13.280;2024-03-29T06:22:22;6.90;99.90
26262;DHT22;13988;52.446;13.280;2024-03-29T06:24:49;7.00;99.90
26262;DHT22;13988;52.446;13.280;2024-03-29T06:27:17;7.00;99.90
26262;DHT22;13988;52.446;13.280;2024-03-29T06:29:44;7.10;99.90
26262;DHT22;13988;52.446;13.280;2024-03-29T06:32:10;7.10;99.90
26262;DHT22;13988;52.446;13.280;2024-03-29T06:34:35;7.30;99.90
26262;DHT22;13988;52.446;13.280;2024-03-29T06:37:02;7.30;99.90
26262;DHT22;13988;52.446;13.280;2024-03-29T06:39:27;7.40;99.90
26262;DHT22;13988;52.446;13.280;2024-03-29T06:41:53;7.50;99.90
26262;DHT22;13988;52.446;13.280;2024-03-29T06:44:19;7.60;99.90
26262;DHT22;13988;52.446;13.280;2024-03-29T06:46:46;7.70;99.90
26262;DHT22;13988;52.446;13.280;2024-03-29T06:49:12;7.80;99.90
26262;DHT22;13988;52.446;13.280;2024-03-29T06:51:39;7.90;99.90
26262;DHT22;13988;52.446;13.280;2024-03-29T06:54:05;7.90;99.90
26262;DHT22;13988;52.446;13.280;2024-03-29T06:56:31;8.00;99.90
26262;DHT22;13988;52.446;13.280;2024-03-29T06:58:58;8.10;99.90
26262;DHT22;13988;52.446;13.280;2024-03-29T07:01:23;8.20;99.90
26262;DHT22;13988;52.446;13.280;2024-03-29T07:03:49;8.30;99.90
26262;DHT22;13988;52.446;13.280;2024-03-29T07:06:15;8.40;99.90
26262;DHT22;13988;52.446;13.280;2024-03-29T07:08:41;8.30;99.90
26262;DHT22;13988;52.446;13.280;2024-03-29T07:11:06;8.40;99.90
26262;DHT22;13988;52.446;13.280;2024-03-29T07:13:32;8.40;99.90
26262;DHT22;13988;52.446;13.280;2024-03-29T07:15:59;8.40;99.90
26262;DHT22;13988;52.446;13.280;2024-03-29T07:18:25;8.40;99.90
26262;DHT22;13988;52.446;13.280;2024-03-29T07:20:50;8.50;99.90
26262;DHT22;13988;52.446;13.280;2024-03-29T07:23:16;8.60;99.90
26262;DHT22;13988;52.446;13.280;2024-03-29T07:25:45;8.70;99.90
26262;DHT22;13988;52.446;13.280;2024-03-29T07:28:11;8.80;99.90
26262;DHT22;13988;52.446;13.280;2024-03-29T07:30:41;8.80;99.90
26262;DHT22;13988;52.446;13.280;2024-03-29T07:33:07;8.90;99.90
26262;DHT22;13988;52.446;13.280;2024-03-29T07:35:34;8.90;99.90
26262;DHT22;13988;52.446;13.280;2024-03-29T07:38:00;8.90;99.90
26262;DHT22;13988;52.446;13.280;2024-03-29T07:40:25;9.00;99.90
26262;DHT22;13988;52.446;13.280;2024-03-29T07:42:51;9.10;99.90
26262;DHT22;13988;52.446;13.280;2024-03-29T07:45:16;9.20;99.90
26262;DHT22;13988;52.446;13.280;2024-03-29T07:47:42;9.20;99.90
26262;DHT22;13988;52.446;13.280;2024-03-29T07:50:08;9.20;99.90
26262;DHT22;13988;52.446;13.280;2024-03-29T07:52:35;9.20;99.90
26262;DHT22;13988;52.446;13.280;2024-03-29T07:55:01;9.20;99.90
26262;DHT22;13988;52.446;13.280;2024-03-29T07:57:26;9.30;99.90
26262;DHT22;13988;52.446;13.280;2024-03-29T07:59:52;9.20;99.90
26262;DHT22;13988;52.446;13.280;2024-03-29T08:02:18;9.20;99.90
26262;DHT22;13988;52.446;13.280;2024-03-29T08:04:43;9.20;99.90
26262;DHT22;13988;52.446;13.280;2024-03-29T08:07:10;9.20;99.90
26262;DHT22;13988;52.446;13.280;2024-03-29T08:09:37;9.10;99.90
26262;DHT22;13988;52.446;13.280;2024-03-29T08:12:05;9.10;99.90
26262;DHT22;13988;52.446;13.280;2024-03-29T08:14:30;9.10;99.90
26262;DHT22;13988;52.446;13.280;2024-03-29T08:16:56;9.20;99.90
26262;DHT22;13988;52.446;13.280;2024-03-29T08:19:27;9.20;99.90
26262;DHT22;13988;52.446;13.280;2024-03-29T08:21:53;9.30;99.90
26262;DHT22;13988;52.446;13.280;2024-03-29T08:24:18;9.30;99.90
26262;DHT22;13988;52.446;13.280;2024-03-29T08:26:44;9.40;99.90
26262;DHT22;13988;52.446;13.280;2024-03-29T08:29:10;9.40;99.90
26262;DHT22;13988;52.446;13.280;2024-03-29T08:31:36;9.60;99.90
26262;DHT22;13988;52.446;13.280;2024-03-29T08:34:02;9.70;99.90
26262;DHT22;13988;52.446;13.280;2024-03-29T08:36:27;9.80;99.90
26262;DHT22;13988;52.446;13.280;2024-03-29T08:38:53;10.00;99.90
26262;DHT22;13988;52.446;13.280;2024-03-29T08:41:18;10.10;99.90
26262;DHT22;13988;52.446;13.280;2024-03-29T08:43:44;10.20;99.90
26262;DHT22;13988;52.446;13.280;2024-03-29T08:46:10;10.40;99.90
26262;DHT22;13988;52.446;13.280;2024-03-29T08:48:35;10.50;99.90
26262;DHT22;13988;52.446;13.280;2024-03-29T08:51:03;10.50;99.90
26262;DHT22;13988;52.446;13.280;2024-03-29T08:53:29;10.60;99.90
26262;DHT22;13988;52.446;13.280;2024-03-29T08:55:54;10.80;99.90
26262;DHT22;13988;52.446;13.280;2024-03-29T08:58:20;10.80;99.90
26262;DHT22;13988;52.446;13.280;2024-03-29T09:00:55;11.00;99.90
26262;DHT22;13988;52.446;13.280;2024-03-29T09:03:22;11.20;99.90
26262;DHT22;13988;52.446;13.280;2024-03-29T09:05:48;11.30;99.90
26262;DHT22;13988;52.446;13.280;2024-03-29T09:08:14;11.40;99.90
26262;DHT22;13988;52.446;13.280;2024-03-29T09:10:40;11.50;99.90
26262;DHT22;13988;52.446;13.280;2024-03-29T09:13:06;11.50;99.90
26262;DHT22;13988;52.446;13.280;2024-03-29T09:15:34;11.50;99.90
26262;DHT22;13988;52.446;13.280;2024-03-29T09:18:00;11.50;99.90
26262;DHT22;13988;52.446;13.280;2024-03-29T09:20:36;11.60;99.90
26262;DHT22;13988;52.446;13.280;2024-03-29T09:23:01;11.70;99.90
26262;DHT22;13988;52.446;13.280;2024-03-29T09:25:27;11.80;99.90
26262;DHT22;13988;52.446;13.280;2024-03-29T09:27:53;11.80;99.90
26262;DHT22;13988;52.446;13.280;2024-03-29T09:30:18;11.80;99.90
26262;DHT22;13988;52.446;13.280;2024-03-29T09:32:45;11.70;99.90
26262;DHT22;13988;52.446;13.280;2024-03-29T09:35:11;11.70;99.90
26262;DHT22;13988;52.446;13.280;2024-03-29T09:37:36;11.80;99.90
26262;DHT22;13988;52.446;13.280;2024-03-29T09:40:03;11.80;99.90
26262;DHT22;13988;52.446;13.280;2024-03-29T09:42:32;11.90;99.90
26262;DHT22;13988;52.446;13.280;2024-03-29T09:44:59;12.00;99.90
26262;DHT22;13988;52.446;13.280;2024-03-29T09:47:25;12.10;99.90
26262;DHT22;13988;52.446;13.280;2024-03-29T09:49:53;12.10;99.90
26262;DHT22;13988;52.446;13.280;2024-03-29T09:52:20;12.00;99.90
26262;DHT22;13988;52.446;13.280;2024-03-29T09:54:46;12.00;99.90
26262;DHT22;13988;52.446;13.280;2024-03-29T09:57:12;12.00;99.90
26262;DHT22;13988;52.446;13.280;2024-03-29T09:59:42;12.00;99.90
26262;DHT22;13988;52.446;13.280;2024-03-29T10:02:15;12.10;99.90
26262;DHT22;13988;52.446;13.280;2024-03-29T10:04:42;12.10;99.90
26262;DHT22;13988;52.446;13.280;2024-03-29T10:07:09;11.90;99.90
26262;DHT22;13988;52.446;13.280;2024-03-29T10:09:37;11.90;99.90
26262;DHT22;13988;52.446;13.280;2024-03-29T10:12:04;11.80;99.90
26262;DHT22;13988;52.446;13.280;2024-03-29T10:14:31;11.80;99.90
26262;DHT22;13988;52.446;13.280;2024-03-29T10:17:00;11.70;99.90
26262;DHT22;13988;52.446;13.280;2024-03-29T10:19:25;11.60;99.90
26262;DHT22;13988;52.446;13.280;2024-03-29T10:21:51;11.30;99.90
26262;DHT22;13988;52.446;13.280;2024-03-29T10:24:17;11.30;99.90
26262;DHT22;13988;52.446;13.280;2024-03-29T10:26:43;11.20;99.90
26262;DHT22;13988;52.446;13.280;2024-03-29T10:29:09;11.20;99.90
26262;DHT22;13988;52.446;13.280;2024-03-29T10:31:35;11.30;99.90
26262;DHT22;13988;52.446;13.280;2024-03-29T10:34:05;11.30;99.90
26262;DHT22;13988;52.446;13.280;2024-03-29T10:36:31;11.30;99.90
26262;DHT22;13988;52.446;13.280;2024-03-29T10:39:02;11.30;99.90
26262;DHT22;13988;52.446;13.280;2024-03-29T10:41:30;11.40;99.90
26262;DHT22;13988;52.446;13.280;2024-03-29T10:43:57;11.30;99.90
26262;DHT22;13988;52.446;13.280;2024-03-29T10:46:23;11.30;99.90
26262;DHT22;13988;52.446;13.280;2024-03-29T10:48:49;11.20;99.90
26262;DHT22;13988;52.446;13.280;2024-03-29T10:51:15;11.30;99.90
26262;DHT22;13988;52.446;13.280;2024-03-29T10:53:41;11.40;99.90
26262;DHT22;13988;52.446;13.280;2024-03-29T10:56:07;11.50;99.90
26262;DHT22;13988;52.446;13.280;2024-03-29T10:58:35;11.50;99.90
26262;DHT22;13988;52.446;13.280;2024-03-29T11:01:04;11.40;99.90
26262;DHT22;13988;52.446;13.280;2024-03-29T11:03:50;11.60;99.90
26262;DHT22;13988;52.446;13.280;2024-03-29T11:06:23;11.70;99.90
26262;DHT22;13988;52.446;13.280;2024-03-29T11:08:52;11.90;99.90
26262;DHT22;13988;52.446;13.280;2024-03-29T11:11:20;12.00;99.90
26262;DHT22;13988;52.446;13.280;2024-03-29T11:14:02;12.10;99.90
26262;DHT22;13988;52.446;13.280;2024-03-29T11:16:30;12.20;99.90
26262;DHT22;13988;52.446;13.280;2024-03-29T11:18:56;12.40;99.90
26262;DHT22;13988;52.446;13.280;2024-03-29T11:21:22;12.40;99.90
26262;DHT22;13988;52.446;13.280;2024-03-29T11:23:53;12.40;99.90
26262;DHT22;13988;52.446;13.280;2024-03-29T11:26:19;12.30;99.90
26262;DHT22;13988;52.446;13.280;2024-03-29T11:28:49;12.40;99.90
26262;DHT22;13988;52.446;13.280;2024-03-29T11:31:15;12.40;99.90
26262;DHT22;13988;52.446;13.280;2024-03-29T11:36:19;12.30;99.90
26262;DHT22;13988;52.446;13.280;2024-03-29T11:38:47;12.20;99.90
26262;DHT22;13988;52.446;13.280;2024-03-29T11:41:20;12.20;99.90
26262;DHT22;13988;52.446;13.280;2024-03-29T11:43:49;12.10;99.90
26262;DHT22;13988;52.446;13.280;2024-03-29T11:46:15;12.10;99.90
26262;DHT22;13988;52.446;13.280;2024-03-29T11:48:44;12.00;99.90
26262;DHT22;13988;52.446;13.280;2024-03-29T11:51:13;12.00;99.90
26262;DHT22;13988;52.446;13.280;2024-03-29T11:53:43;12.10;99.90
26262;DHT22;13988;52.446;13.280;2024-03-29T11:56:09;12.10;99.90
26262;DHT22;13988;52.446;13.280;2024-03-29T11:58:37;12.10;99.90
26262;DHT22;13988;52.446;13.280;2024-03-29T12:01:03;12.00;99.90
26262;DHT22;13988;52.446;13.280;2024-03-29T12:03:30;12.10;99.90
26262;DHT22;13988;52.446;13.280;2024-03-29T12:05:57;12.00;99.90
26262;DHT22;13988;52.446;13.280;2024-03-29T12:08:33;12.10;99.90
26262;DHT22;13988;52.446;13.280;2024-03-29T12:11:01;12.20;99.90
26262;DHT22;13988;52.446;13.280;2024-03-29T12:13:27;12.20;99.90
26262;DHT22;13988;52.446;13.280;2024-03-29T12:15:53;12.30;99.90
26262;DHT22;13988;52.446;13.280;2024-03-29T12:18:22;12.40;99.90
26262;DHT22;13988;52.446;13.280;2024-03-29T12:20:49;12.50;99.90
26262;DHT22;13988;52.446;13.280;2024-03-29T12:23:20;12.70;99.90
26262;DHT22;13988;52.446;13.280;2024-03-29T12:25:47;12.60;99.90
26262;DHT22;13988;52.446;13.280;2024-03-29T12:28:14;12.70;99.90
26262;DHT22;13988;52.446;13.280;2024-03-29T12:30:44;12.90;99.90
26262;DHT22;13988;52.446;13.280;2024-03-29T12:33:19;13.10;99.90
26262;DHT22;13988;52.446;13.280;2024-03-29T12:35:49;13.30;99.90
26262;DHT22;13988;52.446;13.280;2024-03-29T12:38:16;13.30;99.90
26262;DHT22;13988;52.446;13.280;2024-03-29T12:40:43;13.50;99.90
26262;DHT22;13988;52.446;13.280;2024-03-29T12:43:10;13.80;99.90
26262;DHT22;13988;52.446;13.280;2024-03-29T12:45:40;14.40;99.90
26262;DHT22;13988;52.446;13.280;2024-03-29T12:48:14;14.50;99.90
26262;DHT22;13988;52.446;13.280;2024-03-29T12:50:42;14.60;99.90
26262;DHT22;13988;52.446;13.280;2024-03-29T12:53:09;14.50;99.90
26262;DHT22;13988;52.446;13.280;2024-03-29T12:55:35;14.30;99.90
26262;DHT22;13988;52.446;13.280;2024-03-29T12:58:02;14.40;99.90
26262;DHT22;13988;52.446;13.280;2024-03-29T13:00:30;14.40;99.90
26262;DHT22;13988;52.446;13.280;2024-03-29T13:02:56;14.40;99.90
26262;DHT22;13988;52.446;13.280;2024-03-29T13:05:22;14.60;99.90
26262;DHT22;13988;52.446;13.280;2024-03-29T13:07:48;14.40;99.90
26262;DHT22;13988;52.446;13.280;2024-03-29T13:10:13;14.30;99.90
26262;DHT22;13988;52.446;13.280;2024-03-29T13:12:41;14.30;99.90
26262;DHT22;13988;52.446;13.280;2024-03-29T13:15:19;14.20;99.90
26262;DHT22;13988;52.446;13.280;2024-03-29T13:17:46;14.30;99.90
26262;DHT22;13988;52.446;13.280;2024-03-29T13:20:14;14.40;99.90
26262;DHT22;13988;52.446;13.280;2024-03-29T13:22:47;14.30;99.90
26262;DHT22;13988;52.446;13.280;2024-03-29T13:25:15;14.30;99.90
26262;DHT22;13988;52.446;13.280;2024-03-29T13:27:41;14.50;99.90
26262;DHT22;13988;52.446;13.280;2024-03-29T13:30:09;14.60;99.90
26262;DHT22;13988;52.446;13.280;2024-03-29T13:32:35;14.70;98.50
26262;DHT22;13988;52.446;13.280;2024-03-29T13:35:02;14.90;95.40
26262;DHT22;13988;52.446;13.280;2024-03-29T13:37:33;15.30;97.10
26262;DHT22;13988;52.446;13.280;2024-03-29T13:39:59;16.00;92.70
26262;DHT22;13988;52.446;13.280;2024-03-29T13:42:24;16.70;75.10
26262;DHT22;13988;52.446;13.280;2024-03-29T13:44:50;16.80;70.80
26262;DHT22;13988;52.446;13.280;2024-03-29T13:47:17;16.50;75.80
26262;DHT22;13988;52.446;13.280;2024-03-29T13:49:45;16.10;68.80
26262;DHT22;13988;52.446;13.280;2024-03-29T13:52:12;16.10;74.70
26262;DHT22;13988;52.446;13.280;2024-03-29T13:54:42;16.00;68.50
26262;DHT22;13988;52.446;13.280;2024-03-29T13:57:08;15.80;67.40
26262;DHT22;13988;52.446;13.280;2024-03-29T13:59:35;15.70;71.30
26262;DHT22;13988;52.446;13.280;2024-03-29T14:02:01;15.70;68.40
26262;DHT22;13988;52.446;13.280;2024-03-29T14:04:27;15.70;72.00
26262;DHT22;13988;52.446;13.280;2024-03-29T14:06:52;16.00;73.00
26262;DHT22;13988;52.446;13.280;2024-03-29T14:09:18;16.20;64.90
26262;DHT22;13988;52.446;13.280;2024-03-29T14:11:44;16.10;66.90
26262;DHT22;13988;52.446;13.280;2024-03-29T14:14:10;16.20;64.60
26262;DHT22;13988;52.446;13.280;2024-03-29T14:16:37;16.40;66.40
26262;DHT22;13988;52.446;13.280;2024-03-29T14:19:03;16.70;61.60
26262;DHT22;13988;52.446;13.280;2024-03-29T14:21:29;16.60;60.60
26262;DHT22;13988;52.446;13.280;2024-03-29T14:23:55;16.30;61.60
26262;DHT22;13988;52.446;13.280;2024-03-29T14:26:21;16.10;67.90
26262;DHT22;13988;52.446;13.280;2024-03-29T14:28:47;16.00;72.30
26262;DHT22;13988;52.446;13.280;2024-03-29T14:31:13;15.70;74.10
26262;DHT22;13988;52.446;13.280;2024-03-29T14:33:38;15.50;79.20
26262;DHT22;13988;52.446;13.280;2024-03-29T14:36:04;15.50;77.60
26262;DHT22;13988;52.446;13.280;2024-03-29T14:38:30;16.00;77.30
26262;DHT22;13988;52.446;13.280;2024-03-29T14:40:55;16.70;79.30
26262;DHT22;13988;52.446;13.280;2024-03-29T14:43:21;16.50;74.00
26262;DHT22;13988;52.446;13.280;2024-03-29T14:45:47;16.40;74.00
26262;DHT22;13988;52.446;13.280;2024-03-29T14:48:16;16.40;81.70
26262;DHT22;13988;52.446;13.280;2024-03-29T14:50:43;16.40;76.80
26262;DHT22;13988;52.446;13.280;2024-03-29T14:53:09;16.30;80.30
26262;DHT22;13988;52.446;13.280;2024-03-29T14:55:35;16.40;79.50
26262;DHT22;13988;52.446;13.280;2024-03-29T14:58:07;16.10;80.90
26262;DHT22;13988;52.446;13.280;2024-03-29T15:00:33;15.90;90.50
26262;DHT22;13988;52.446;13.280;2024-03-29T15:02:58;16.00;91.20
26262;DHT22;13988;52.446;13.280;2024-03-29T15:05:24;15.90;90.50
26262;DHT22;13988;52.446;13.280;2024-03-29T15:07:52;15.90;92.50
26262;DHT22;13988;52.446;13.280;2024-03-29T15:10:18;15.90;92.90
26262;DHT22;13988;52.446;13.280;2024-03-29T15:12:45;15.80;93.90
26262;DHT22;13988;52.446;13.280;2024-03-29T15:15:12;15.60;95.80
26262;DHT22;13988;52.446;13.280;2024-03-29T15:17:37;15.50;95.80
26262;DHT22;13988;52.446;13.280;2024-03-29T15:20:04;15.40;96.30
26262;DHT22;13988;52.446;13.280;2024-03-29T15:22:31;15.40;98.00
26262;DHT22;13988;52.446;13.280;2024-03-29T15:24:58;15.30;98.30